createdAt,value
2022-12-03T00:02:02.007Z,6.63
2022-12-03T00:04:29.075Z,7.43
2022-12-03T00:06:55.624Z,8.13
2022-12-03T00:09:22.613Z,8.07
2022-12-03T00:11:49.613Z,7.43
2022-12-03T00:14:16.594Z,6.00
2022-12-03T00:16:43.456Z,7.23
2022-12-03T00:19:10.450Z,6.13
2022-12-03T00:21:37.438Z,5.87
2022-12-03T00:24:04.500Z,7.27
2022-12-03T00:26:31.479Z,6.43
2022-12-03T00:28:58.596Z,7.33
2022-12-03T00:31:25.848Z,6.57
2022-12-03T00:33:53.190Z,8.47
2022-12-03T00:36:20.484Z,7.00
2022-12-03T00:38:47.580Z,6.73
2022-12-03T00:41:14.591Z,8.33
2022-12-03T00:43:41.612Z,6.60
2022-12-03T00:46:08.692Z,6.87
2022-12-03T00:48:35.352Z,6.30
2022-12-03T00:51:02.345Z,7.57
2022-12-03T00:53:29.000Z,5.50
2022-12-03T00:55:56.007Z,8.63
2022-12-03T00:58:23.035Z,6.77
2022-12-03T01:00:49.668Z,8.37
2022-12-03T01:03:16.650Z,7.77
2022-12-03T01:05:43.653Z,9.67
2022-12-03T01:08:11.425Z,8.07
2022-12-03T01:10:38.576Z,7.67
2022-12-03T01:13:05.194Z,8.70
2022-12-03T01:15:31.791Z,7.23
2022-12-03T01:17:58.786Z,8.07
2022-12-03T01:20:25.762Z,7.63
2022-12-03T01:22:52.750Z,8.27
2022-12-03T01:25:19.332Z,7.23
2022-12-03T01:27:46.389Z,8.83
2022-12-03T01:30:13.716Z,6.63
2022-12-03T01:32:40.796Z,8.13
2022-12-03T01:35:07.943Z,7.17
2022-12-03T01:37:34.985Z,7.93
2022-12-03T01:40:02.003Z,7.43
2022-12-03T01:42:39.434Z,8.13
2022-12-03T01:45:07.409Z,6.97
2022-12-03T01:47:36.644Z,7.47
2022-12-03T01:50:08.648Z,7.90
2022-12-03T01:52:39.085Z,7.80
2022-12-03T01:55:12.799Z,6.93
2022-12-03T01:57:47.025Z,7.80
2022-12-03T02:00:19.500Z,6.90
2022-12-03T02:02:48.601Z,7.37
2022-12-03T02:05:43.188Z,7.50
2022-12-03T02:08:29.839Z,6.40
2022-12-03T02:10:59.740Z,6.80
2022-12-03T02:13:26.439Z,7.07
2022-12-03T02:15:53.523Z,6.83
2022-12-03T02:18:20.588Z,6.33
2022-12-03T02:21:01.208Z,6.73
2022-12-03T02:24:04.666Z,5.63
2022-12-03T02:26:31.261Z,6.83
2022-12-03T02:28:58.374Z,7.07
2022-12-03T02:31:25.104Z,6.47
2022-12-03T02:33:51.799Z,5.87
2022-12-03T02:36:19.019Z,6.23
2022-12-03T02:38:46.374Z,6.40
2022-12-03T02:41:36.865Z,6.60
2022-12-03T02:44:06.010Z,7.03
2022-12-03T02:46:33.496Z,6.83
2022-12-03T02:49:01.414Z,7.07
2022-12-03T02:51:28.095Z,7.23
2022-12-03T02:53:56.654Z,6.73
2022-12-03T02:56:28.495Z,7.40
2022-12-03T02:58:58.218Z,5.87
2022-12-03T03:01:25.335Z,7.13
2022-12-03T03:03:52.493Z,7.07
2022-12-03T03:06:20.563Z,7.63
2022-12-03T03:08:47.649Z,7.30
2022-12-03T03:11:14.701Z,6.83
2022-12-03T03:13:41.782Z,8.40
2022-12-03T03:16:08.990Z,8.33
2022-12-03T03:18:36.522Z,7.13
2022-12-03T03:21:03.936Z,8.10
2022-12-03T03:23:30.966Z,7.60
2022-12-03T03:26:07.032Z,8.10
2022-12-03T03:28:37.760Z,6.30
2022-12-03T03:31:06.605Z,7.60
2022-12-03T03:33:33.768Z,8.30
2022-12-03T03:36:01.214Z,7.87
2022-12-03T03:38:29.487Z,7.43
2022-12-03T03:40:57.889Z,8.00
2022-12-03T03:43:24.893Z,6.77
2022-12-03T03:45:53.516Z,7.33
2022-12-03T03:48:20.743Z,7.80
2022-12-03T03:50:48.004Z,8.37
2022-12-03T03:53:15.753Z,6.73
2022-12-03T03:55:42.979Z,8.60
2022-12-03T03:58:09.794Z,8.90
2022-12-03T04:00:37.131Z,7.80
2022-12-03T04:03:04.912Z,8.67
2022-12-03T04:05:31.944Z,8.73
2022-12-03T04:07:59.258Z,8.97
2022-12-03T04:10:45.420Z,9.20
2022-12-03T04:13:12.005Z,8.00
2022-12-03T04:15:38.634Z,7.87
2022-12-03T04:18:23.910Z,8.40
2022-12-03T04:20:50.579Z,9.07
2022-12-03T04:23:17.604Z,8.40
2022-12-03T04:26:02.858Z,8.53
2022-12-03T04:28:48.680Z,9.07
2022-12-03T04:31:34.677Z,8.23
2022-12-03T04:34:20.531Z,8.10
2022-12-03T04:36:47.351Z,7.13
2022-12-03T04:39:14.028Z,9.00
2022-12-03T04:41:41.085Z,8.50
2022-12-03T04:44:26.852Z,8.53
2022-12-03T04:46:53.406Z,10.00
2022-12-03T04:49:20.401Z,9.00
2022-12-03T04:51:47.409Z,8.60
2022-12-03T04:54:14.491Z,8.63
2022-12-03T04:56:41.297Z,8.90
2022-12-03T04:59:14.206Z,9.37
2022-12-03T05:01:42.748Z,7.87
2022-12-03T05:04:09.801Z,9.47
2022-12-03T05:06:36.805Z,8.60
2022-12-03T05:09:03.862Z,9.07
2022-12-03T05:11:30.861Z,9.20
2022-12-03T05:13:57.869Z,9.23
2022-12-03T05:16:25.113Z,8.90
2022-12-03T05:18:52.200Z,9.77
2022-12-03T05:21:18.812Z,10.10
2022-12-03T05:23:45.814Z,8.70
2022-12-03T05:26:12.954Z,8.87
2022-12-03T05:28:39.558Z,9.40
2022-12-03T05:31:06.791Z,10.23
2022-12-03T05:33:33.856Z,7.93
2022-12-03T05:36:00.870Z,9.23
2022-12-03T05:38:27.882Z,10.73
2022-12-03T05:40:55.165Z,9.93
2022-12-03T05:43:21.715Z,9.23
2022-12-03T05:45:48.834Z,10.60
2022-12-03T05:48:16.769Z,9.53
2022-12-03T05:50:45.516Z,10.50
2022-12-03T05:53:13.132Z,8.37
2022-12-03T05:55:39.887Z,9.43
2022-12-03T05:58:06.902Z,9.33
2022-12-03T06:00:42.517Z,8.63
2022-12-03T06:03:10.107Z,9.40
2022-12-03T06:05:37.317Z,9.23
2022-12-03T06:08:04.567Z,9.13
2022-12-03T06:10:32.448Z,7.70
2022-12-03T06:12:59.077Z,8.33
2022-12-03T06:15:26.126Z,8.43
2022-12-03T06:17:53.199Z,9.80
2022-12-03T06:20:20.632Z,8.53
2022-12-03T06:22:47.844Z,8.93
2022-12-03T06:25:15.116Z,9.53
2022-12-03T06:27:41.777Z,8.17
2022-12-03T06:30:09.231Z,9.80
2022-12-03T06:32:36.120Z,7.00
2022-12-03T06:35:03.249Z,9.70
2022-12-03T06:37:29.820Z,10.27
2022-12-03T06:39:56.863Z,10.20
2022-12-03T06:42:23.871Z,9.23
2022-12-03T06:44:51.350Z,9.43
2022-12-03T06:47:18.527Z,8.63
2022-12-03T06:49:45.512Z,9.50
2022-12-03T06:52:12.529Z,9.63
2022-12-03T06:54:39.532Z,8.87
2022-12-03T06:57:06.529Z,9.33
2022-12-03T06:59:35.683Z,10.77
2022-12-03T07:02:02.848Z,11.37
2022-12-03T07:04:29.888Z,9.10
2022-12-03T07:06:56.917Z,9.07
2022-12-03T07:09:23.894Z,11.43
2022-12-03T07:11:50.571Z,10.13
2022-12-03T07:14:17.598Z,10.03
2022-12-03T07:16:44.365Z,9.63
2022-12-03T07:19:11.683Z,10.13
2022-12-03T07:21:38.752Z,9.27
2022-12-03T07:24:06.066Z,9.40
2022-12-03T07:26:33.051Z,10.47
2022-12-03T07:29:00.094Z,10.47
2022-12-03T07:31:27.346Z,10.43
2022-12-03T07:33:54.468Z,11.77
2022-12-03T07:36:21.532Z,10.37
2022-12-03T07:38:48.699Z,15.67
2022-12-03T07:41:15.736Z,11.63
2022-12-03T07:43:43.620Z,10.13
2022-12-03T07:46:10.679Z,9.43
2022-12-03T07:48:37.294Z,9.47
2022-12-03T07:51:04.364Z,10.27
2022-12-03T07:53:31.339Z,10.27
2022-12-03T07:55:57.950Z,9.00
2022-12-03T07:58:24.966Z,10.53
2022-12-03T08:00:52.113Z,9.23
2022-12-03T08:03:19.188Z,9.87
2022-12-03T08:05:46.183Z,10.80
2022-12-03T08:08:13.743Z,9.67
2022-12-03T08:10:40.921Z,10.37
2022-12-03T08:13:13.498Z,10.00
2022-12-03T08:15:40.557Z,10.37
2022-12-03T08:18:19.504Z,11.17
2022-12-03T08:20:48.344Z,9.33
2022-12-03T08:23:20.949Z,10.00
2022-12-03T08:25:49.134Z,9.43
2022-12-03T08:28:25.609Z,11.47
2022-12-03T08:31:11.914Z,9.67
2022-12-03T08:33:40.006Z,8.70
2022-12-03T08:36:12.850Z,9.67
2022-12-03T08:38:39.893Z,7.50
2022-12-03T08:41:14.796Z,8.87
2022-12-03T08:43:43.681Z,8.83
2022-12-03T08:46:16.483Z,9.83
2022-12-03T08:48:48.636Z,9.47
2022-12-03T08:51:25.066Z,8.03
2022-12-03T08:54:01.586Z,8.97
2022-12-03T08:56:30.629Z,9.27
2022-12-03T08:59:39.359Z,9.47
2022-12-03T09:02:17.709Z,8.30
2022-12-03T09:04:46.556Z,7.97
2022-12-03T09:07:13.141Z,8.00
2022-12-03T09:09:40.311Z,7.30
2022-12-03T09:18:47.364Z,9.03
2022-12-03T09:21:14.469Z,7.60
2022-12-03T09:23:41.499Z,8.37
2022-12-03T09:26:08.172Z,8.60
2022-12-03T09:28:35.172Z,8.27
2022-12-03T09:31:02.172Z,8.03
2022-12-03T09:33:31.008Z,7.93
2022-12-03T09:35:57.899Z,8.93
2022-12-03T09:38:24.900Z,8.00
2022-12-03T09:40:52.060Z,7.73
2022-12-03T09:43:19.707Z,8.83
2022-12-03T09:45:47.964Z,9.30
2022-12-03T09:48:17.997Z,8.60
2022-12-03T09:50:45.245Z,7.27
2022-12-03T09:53:20.225Z,7.63
2022-12-03T09:55:47.913Z,7.00
2022-12-03T09:58:17.867Z,8.63
2022-12-03T10:00:48.095Z,9.00
2022-12-03T10:03:17.417Z,8.07
2022-12-03T10:05:48.036Z,7.20
2022-12-03T10:08:20.705Z,7.10
2022-12-03T10:10:51.617Z,7.47
2022-12-03T10:13:30.308Z,6.83
2022-12-03T10:15:59.704Z,8.67
2022-12-03T10:18:30.776Z,7.97
2022-12-03T10:20:58.225Z,7.93
2022-12-03T10:23:27.574Z,8.27
2022-12-03T10:25:57.083Z,7.50
2022-12-03T10:28:40.039Z,8.63
2022-12-03T10:31:09.711Z,7.87
2022-12-03T10:33:38.990Z,7.40
2022-12-03T10:36:16.087Z,7.40
2022-12-03T10:38:43.252Z,7.77
2022-12-03T10:41:27.414Z,7.40
2022-12-03T10:43:54.490Z,7.43
2022-12-03T10:46:22.350Z,8.70
2022-12-03T10:49:10.033Z,5.57
2022-12-03T10:51:38.111Z,7.07
2022-12-03T10:54:13.082Z,7.77
2022-12-03T10:56:39.765Z,7.13
2022-12-03T10:59:08.405Z,6.70
2022-12-03T11:01:35.484Z,7.30
2022-12-03T11:04:04.814Z,6.70
2022-12-03T11:06:34.936Z,7.40
2022-12-03T11:09:07.071Z,7.60
2022-12-03T11:11:35.526Z,8.17
2022-12-03T11:14:03.971Z,7.13
2022-12-03T11:16:39.703Z,6.90
2022-12-03T11:22:27.738Z,6.30
2022-12-03T11:25:25.298Z,7.70
2022-12-03T11:28:17.934Z,7.73
2022-12-03T11:30:53.790Z,7.27
2022-12-03T11:33:35.543Z,6.90
2022-12-03T11:36:02.552Z,7.33
2022-12-03T11:38:41.292Z,7.67
2022-12-03T11:41:08.961Z,7.97
2022-12-03T11:43:56.387Z,7.70
2022-12-03T11:46:42.938Z,6.93
2022-12-03T11:49:28.598Z,8.03
2022-12-03T11:51:55.732Z,6.70
2022-12-03T11:54:23.740Z,6.23
2022-12-03T11:56:52.764Z,7.57
2022-12-03T11:59:19.969Z,6.60
2022-12-03T12:01:47.058Z,7.10
2022-12-03T12:04:37.611Z,7.63
2022-12-03T12:07:04.401Z,6.67
2022-12-03T12:09:50.746Z,7.50
2022-12-03T12:12:26.780Z,6.53
2022-12-03T12:14:53.756Z,7.43
2022-12-03T12:17:33.337Z,7.43
2022-12-03T12:20:22.869Z,7.67
2022-12-03T12:22:49.897Z,6.70
2022-12-03T12:25:40.171Z,7.53
2022-12-03T12:28:07.417Z,7.43
2022-12-03T12:30:34.488Z,6.43
2022-12-03T12:33:01.455Z,7.50
2022-12-03T12:35:32.138Z,7.80
2022-12-03T12:38:07.549Z,6.20
2022-12-03T12:40:39.881Z,6.83
2022-12-03T12:43:27.414Z,6.67
2022-12-03T12:45:56.007Z,7.60
2022-12-03T12:48:28.102Z,7.40
2022-12-03T12:51:00.527Z,7.17
2022-12-03T12:53:33.170Z,6.50
2022-12-03T12:56:04.978Z,7.00
2022-12-03T12:58:33.121Z,6.97
2022-12-03T13:01:19.626Z,7.00
2022-12-03T13:03:50.442Z,8.10
2022-12-03T13:06:17.619Z,7.13
2022-12-03T13:08:46.932Z,7.23
2022-12-03T13:11:24.914Z,7.63
2022-12-03T13:13:51.980Z,7.80
2022-12-03T13:16:20.349Z,5.90
2022-12-03T13:18:49.510Z,8.63
2022-12-03T13:21:32.585Z,6.30
2022-12-03T13:23:59.657Z,7.80
2022-12-03T13:26:39.607Z,7.80
2022-12-03T13:29:18.794Z,7.77
2022-12-03T13:32:13.543Z,7.33
2022-12-03T13:34:40.913Z,8.23
2022-12-03T13:37:14.231Z,8.63
2022-12-03T13:39:49.091Z,9.63
2022-12-03T13:42:41.324Z,9.73
2022-12-03T13:45:14.084Z,10.93
2022-12-03T13:47:41.753Z,7.37
2022-12-03T13:50:27.083Z,9.13
2022-12-03T13:52:54.329Z,8.40
2022-12-03T13:55:28.912Z,8.20
2022-12-03T13:57:55.950Z,8.50
2022-12-03T14:00:23.425Z,7.30
2022-12-03T14:02:50.052Z,7.40
2022-12-03T14:05:16.756Z,8.63
2022-12-03T14:07:43.825Z,8.13
2022-12-03T14:10:12.102Z,8.07
2022-12-03T14:12:38.839Z,7.20
2022-12-03T14:15:06.424Z,6.97
2022-12-03T14:17:33.424Z,7.80
2022-12-03T14:20:01.359Z,7.57
2022-12-03T14:22:28.631Z,8.57
2022-12-03T14:24:55.265Z,8.23
2022-12-03T14:27:22.320Z,8.93
2022-12-03T14:29:49.313Z,9.30
2022-12-03T14:32:16.566Z,9.67
2022-12-03T14:34:43.664Z,9.93
2022-12-03T14:37:10.246Z,9.70
2022-12-03T14:39:37.111Z,8.93
2022-12-03T14:42:13.535Z,8.87
2022-12-03T14:44:40.729Z,9.90
2022-12-03T14:47:07.895Z,10.33
2022-12-03T14:49:34.911Z,9.53
2022-12-03T14:52:02.098Z,10.67
2022-12-03T14:54:29.124Z,11.07
2022-12-03T14:56:56.216Z,10.33
2022-12-03T14:59:27.571Z,11.00
2022-12-03T15:01:55.347Z,9.63
2022-12-03T15:04:22.469Z,11.30
2022-12-03T15:06:49.550Z,10.87
2022-12-03T15:09:16.172Z,9.20
2022-12-03T15:11:46.176Z,10.43
2022-12-03T15:14:13.596Z,9.30
2022-12-03T15:16:40.272Z,11.43
2022-12-03T15:19:07.043Z,9.93
2022-12-03T15:21:34.880Z,9.70
2022-12-03T15:24:02.783Z,9.87
2022-12-03T15:26:29.779Z,11.23
2022-12-03T15:28:56.338Z,10.93
2022-12-03T15:31:23.021Z,9.87
2022-12-03T15:33:49.679Z,11.10
2022-12-03T15:36:16.854Z,11.70
2022-12-03T15:38:43.432Z,11.43
2022-12-03T15:41:29.304Z,10.63
2022-12-03T15:44:03.768Z,11.17
2022-12-03T15:46:31.528Z,11.20
2022-12-03T15:48:58.759Z,11.77
2022-12-03T15:51:25.617Z,10.47
2022-12-03T15:53:52.288Z,11.17
2022-12-03T15:56:19.153Z,10.43
2022-12-03T15:58:45.776Z,10.10
2022-12-03T16:01:13.551Z,10.83
2022-12-03T16:03:40.805Z,9.97
2022-12-03T16:06:07.722Z,11.03
2022-12-03T16:08:34.341Z,11.37
2022-12-03T16:11:01.351Z,9.80
2022-12-03T16:13:27.927Z,10.67
2022-12-03T16:15:54.616Z,10.50
2022-12-03T16:18:21.795Z,11.23
2022-12-03T16:20:48.860Z,10.97
2022-12-03T16:23:15.939Z,11.67
2022-12-03T16:25:42.924Z,11.77
2022-12-03T16:28:10.054Z,10.70
2022-12-03T16:30:37.317Z,12.13
2022-12-03T16:33:04.003Z,12.27
2022-12-03T16:35:31.109Z,11.73
2022-12-03T16:37:58.103Z,11.83
2022-12-03T16:40:24.730Z,12.27
2022-12-03T16:42:51.423Z,12.40
2022-12-03T16:45:21.605Z,11.30
2022-12-03T16:47:48.624Z,11.80
2022-12-03T16:50:21.907Z,12.33
2022-12-03T16:52:54.600Z,13.20
2022-12-03T16:55:21.220Z,13.43
2022-12-03T16:57:48.311Z,12.30
2022-12-03T17:00:15.781Z,11.73
2022-12-03T17:02:42.837Z,11.50
2022-12-03T17:05:09.947Z,12.47
2022-12-03T17:07:37.333Z,11.30
2022-12-03T17:10:04.935Z,11.77
2022-12-03T17:12:54.201Z,11.40
2022-12-03T17:15:18.157Z,11.43
2022-12-03T17:17:45.135Z,13.43
2022-12-03T17:20:13.243Z,12.30
2022-12-03T17:22:40.171Z,12.67
2022-12-03T17:25:07.592Z,11.53
2022-12-03T17:27:34.205Z,9.70
2022-12-03T17:30:01.344Z,13.20
2022-12-03T17:32:27.884Z,13.50
2022-12-03T17:34:54.934Z,12.43
2022-12-03T17:37:21.531Z,12.30
2022-12-03T17:39:48.372Z,14.03
2022-12-03T17:42:15.416Z,12.20
2022-12-03T17:44:42.034Z,12.30
2022-12-03T17:47:09.076Z,14.03
2022-12-03T17:49:36.084Z,13.00
2022-12-03T17:52:03.236Z,11.77
2022-12-03T17:54:55.252Z,13.67
2022-12-03T17:57:17.791Z,14.50
2022-12-03T17:59:44.443Z,14.33
2022-12-03T18:02:11.208Z,12.73
2022-12-03T18:04:38.243Z,12.97
2022-12-03T18:07:04.804Z,11.97
2022-12-03T18:09:31.601Z,13.40
2022-12-03T18:11:58.701Z,12.87
2022-12-03T18:14:25.428Z,13.63
2022-12-03T18:16:52.030Z,13.07
2022-12-03T18:19:18.807Z,14.87
2022-12-03T18:21:45.432Z,13.37
2022-12-03T18:24:12.432Z,13.80
2022-12-03T18:26:39.028Z,14.80
2022-12-03T18:29:05.664Z,14.40
2022-12-03T18:31:32.307Z,14.13
2022-12-03T18:33:59.347Z,14.73
2022-12-03T18:36:29.762Z,16.47
2022-12-03T18:38:58.197Z,15.20
2022-12-03T18:41:25.373Z,13.77
2022-12-03T18:43:52.388Z,15.20
2022-12-03T18:49:07.461Z,15.10
2022-12-03T18:51:34.074Z,15.20
2022-12-03T18:54:00.721Z,13.57
2022-12-03T18:56:27.685Z,13.60
2022-12-03T18:58:54.295Z,14.67
2022-12-03T19:01:22.731Z,15.60
2022-12-03T19:03:50.221Z,15.43
2022-12-03T19:06:20.636Z,15.13
2022-12-03T19:08:54.033Z,14.60
2022-12-03T19:11:22.132Z,14.83
2022-12-03T19:13:48.784Z,15.80
2022-12-03T19:16:17.110Z,16.50
2022-12-03T19:18:44.362Z,15.70
2022-12-03T19:21:13.517Z,15.50
2022-12-03T19:23:40.631Z,14.83
2022-12-03T19:26:09.814Z,14.87
2022-12-03T19:28:36.721Z,15.93
2022-12-03T19:31:06.720Z,17.23
2022-12-03T19:33:33.928Z,15.63
2022-12-03T19:36:01.664Z,17.00
2022-12-03T19:38:29.505Z,15.33
2022-12-03T19:41:05.225Z,14.13
2022-12-03T19:43:33.962Z,15.73
2022-12-03T19:46:11.896Z,15.17
2022-12-03T19:48:40.117Z,14.13
2022-12-03T19:51:33.167Z,14.20
2022-12-03T19:53:54.513Z,16.40
2022-12-03T19:56:21.256Z,16.40
2022-12-03T19:58:48.023Z,15.80
2022-12-03T20:01:20.316Z,15.03
2022-12-03T20:03:52.316Z,13.97
2022-12-03T20:06:23.107Z,15.20
2022-12-03T20:08:50.526Z,14.07
2022-12-03T20:11:26.174Z,15.90
2022-12-03T20:14:01.829Z,15.73
2022-12-03T20:16:29.076Z,15.30
2022-12-03T20:18:58.052Z,15.73
2022-12-03T20:21:24.835Z,14.40
2022-12-03T20:23:51.891Z,14.00
2022-12-03T20:26:20.502Z,15.07
2022-12-03T20:28:48.109Z,15.20
2022-12-03T20:31:17.342Z,15.23
2022-12-03T20:33:47.081Z,14.07
2022-12-03T20:36:16.127Z,13.93
2022-12-03T20:38:43.048Z,13.40
2022-12-03T20:41:12.172Z,15.53
2022-12-03T20:43:39.829Z,13.87
2022-12-03T20:46:27.522Z,15.73
2022-12-03T20:48:55.140Z,14.43
2022-12-03T20:51:25.556Z,15.50
2022-12-03T20:53:52.269Z,16.00
2022-12-03T20:56:22.103Z,13.80
2022-12-03T20:58:49.661Z,15.63
2022-12-03T21:01:21.029Z,15.13
2022-12-03T21:03:48.888Z,14.73
2022-12-03T21:06:16.741Z,15.10
2022-12-03T21:08:44.252Z,14.77
2022-12-03T21:11:16.887Z,14.57
2022-12-03T21:13:44.257Z,14.90
2022-12-03T21:16:51.945Z,13.47
2022-12-03T21:19:13.755Z,15.43
2022-12-03T21:21:40.316Z,15.83
2022-12-03T21:24:07.461Z,14.43
2022-12-03T21:26:34.502Z,16.03
2022-12-03T21:29:01.060Z,15.00
2022-12-03T21:31:29.997Z,14.37
2022-12-03T21:33:57.179Z,15.23
2022-12-03T21:36:25.172Z,12.70
2022-12-03T21:38:52.629Z,14.20
2022-12-03T21:41:19.258Z,14.47
2022-12-03T21:43:46.324Z,13.17
2022-12-03T21:47:09.219Z,15.33
2022-12-03T21:49:02.384Z,12.73
2022-12-03T21:51:29.575Z,14.43
2022-12-03T21:53:56.650Z,14.43
2022-12-03T21:56:23.230Z,13.70
2022-12-03T21:58:49.904Z,14.97
2022-12-03T22:01:23.034Z,12.97
2022-12-03T22:03:50.565Z,13.17
2022-12-03T22:06:18.096Z,13.80
2022-12-03T22:08:45.265Z,14.37
2022-12-03T22:11:17.405Z,13.77
2022-12-03T22:13:44.950Z,14.10
2022-12-03T22:16:14.934Z,13.97
2022-12-03T22:18:42.348Z,15.83
2022-12-03T22:21:12.380Z,15.03
2022-12-03T22:23:39.639Z,12.03
2022-12-03T22:26:14.490Z,14.53
2022-12-03T22:28:48.944Z,12.20
2022-12-03T22:31:17.097Z,12.23
2022-12-03T22:33:47.912Z,14.83
2022-12-03T22:36:20.565Z,15.00
2022-12-03T22:38:50.061Z,15.00
2022-12-03T22:41:16.916Z,15.77
2022-12-03T22:43:44.093Z,13.13
2022-12-03T22:46:12.608Z,12.70
2022-12-03T22:48:40.620Z,15.00
2022-12-03T22:51:22.220Z,14.30
2022-12-03T22:53:54.141Z,13.93
2022-12-03T22:56:22.250Z,13.10
2022-12-03T22:58:49.305Z,13.77
2022-12-03T23:01:23.991Z,14.10
2022-12-03T23:03:51.409Z,13.50
2022-12-03T23:06:18.759Z,12.50
2022-12-03T23:08:45.467Z,14.17
2022-12-03T23:11:12.504Z,13.33
2022-12-03T23:13:39.908Z,15.70
2022-12-03T23:16:07.589Z,13.50
2022-12-03T23:18:34.468Z,14.93
2022-12-03T23:21:01.517Z,14.90
2022-12-03T23:23:28.508Z,13.03
2022-12-03T23:26:06.993Z,14.23
2022-12-03T23:28:36.095Z,13.93
2022-12-03T23:31:03.669Z,14.77
2022-12-03T23:33:35.268Z,12.73
2022-12-03T23:36:06.378Z,13.53
2022-12-03T23:38:33.386Z,12.93
2022-12-03T23:41:12.511Z,12.73
2022-12-03T23:43:39.694Z,13.57
2022-12-03T23:46:11.781Z,12.80
2022-12-03T23:48:39.245Z,12.83
2022-12-03T23:51:11.550Z,13.97
2022-12-03T23:53:39.114Z,12.83
2022-12-03T23:56:23.977Z,14.17
2022-12-03T23:58:50.960Z,13.87
